createdAt,value
2018-12-13T00:00:39.841Z,5.23
2018-12-13T00:03:08.081Z,5.40
2018-12-13T00:05:36.198Z,6.10
2018-12-13T00:08:04.306Z,5.30
2018-12-13T00:10:32.446Z,6.13
2018-12-13T00:13:00.553Z,5.50
2018-12-13T00:15:30.693Z,5.23
2018-12-13T00:17:58.798Z,6.50
2018-12-13T00:20:26.944Z,6.50
2018-12-13T00:22:55.077Z,6.67
2018-12-13T00:25:23.219Z,6.80
2018-12-13T00:27:51.332Z,6.20
2018-12-13T00:30:19.603Z,7.30
2018-12-13T00:32:47.770Z,7.37
2018-12-13T00:35:15.868Z,6.70
2018-12-13T00:37:43.976Z,7.77
2018-12-13T00:40:12.155Z,7.10
2018-12-13T00:42:40.378Z,6.80
2018-12-13T00:45:08.578Z,6.97
2018-12-13T00:47:36.696Z,6.70
2018-12-13T00:50:05.061Z,6.87
2018-12-13T00:52:33.178Z,7.53
2018-12-13T00:55:01.296Z,7.33
2018-12-13T00:57:29.451Z,6.87
2018-12-13T00:59:57.575Z,7.40
2018-12-13T01:02:25.714Z,8.13
2018-12-13T01:04:53.823Z,7.50
2018-12-13T01:07:22.032Z,8.07
2018-12-13T01:09:50.287Z,8.10
2018-12-13T01:12:18.522Z,8.90
2018-12-13T01:14:46.653Z,8.77
2018-12-13T01:17:14.766Z,8.83
2018-12-13T01:19:42.925Z,9.00
2018-12-13T01:22:11.034Z,9.03
2018-12-13T01:24:39.171Z,8.60
2018-12-13T01:27:07.285Z,10.30
2018-12-13T01:29:35.462Z,10.17
2018-12-13T01:32:03.575Z,9.33
2018-12-13T01:34:31.687Z,9.50
2018-12-13T01:36:59.861Z,10.17
2018-12-13T01:39:27.970Z,9.50
2018-12-13T01:41:56.078Z,9.60
2018-12-13T01:44:24.218Z,10.40
2018-12-13T01:46:52.373Z,10.30
2018-12-13T01:49:20.505Z,9.40
2018-12-13T01:51:48.638Z,9.87
2018-12-13T01:54:16.802Z,10.30
2018-12-13T01:56:44.914Z,10.57
2018-12-13T01:59:13.026Z,10.03
2018-12-13T02:01:41.172Z,10.50
2018-12-13T02:04:09.433Z,10.03
2018-12-13T02:06:37.557Z,10.20
2018-12-13T02:09:06.227Z,10.53
2018-12-13T02:11:34.353Z,10.20
2018-12-13T02:14:02.466Z,11.70
2018-12-13T02:16:30.606Z,11.53
2018-12-13T02:18:58.726Z,11.20
2018-12-13T02:21:26.874Z,11.83
2018-12-13T02:23:55.069Z,10.03
2018-12-13T02:26:23.266Z,10.37
2018-12-13T02:28:51.392Z,10.33
2018-12-13T02:31:19.625Z,10.83
2018-12-13T02:33:47.733Z,10.83
2018-12-13T02:36:15.852Z,11.70
2018-12-13T02:38:43.990Z,10.80
2018-12-13T02:41:12.100Z,11.17
2018-12-13T02:43:40.233Z,11.27
2018-12-13T02:46:08.337Z,11.13
2018-12-13T02:48:36.507Z,11.07
2018-12-13T02:51:04.641Z,11.63
2018-12-13T02:53:32.975Z,12.07
2018-12-13T02:56:01.162Z,12.97
2018-12-13T02:58:29.266Z,12.70
2018-12-13T03:00:57.421Z,13.07
2018-12-13T03:03:25.525Z,12.27
2018-12-13T03:05:53.794Z,12.40
2018-12-13T03:08:21.902Z,13.40
2018-12-13T03:10:50.042Z,14.00
2018-12-13T03:13:18.209Z,13.30
2018-12-13T03:15:46.462Z,14.07
2018-12-13T03:18:14.602Z,13.80
2018-12-13T03:20:42.745Z,13.90
2018-12-13T03:23:10.885Z,13.80
2018-12-13T03:25:39.030Z,15.73
2018-12-13T03:28:07.153Z,14.93
2018-12-13T03:30:35.410Z,15.27
2018-12-13T03:33:03.519Z,16.80
2018-12-13T03:35:31.630Z,16.70
2018-12-13T03:37:59.768Z,17.03
2018-12-13T03:40:27.919Z,16.70
2018-12-13T03:42:56.087Z,16.73
2018-12-13T03:45:24.234Z,16.80
2018-12-13T03:47:52.383Z,17.97
2018-12-13T03:50:20.545Z,18.17
2018-12-13T03:52:48.690Z,18.53
2018-12-13T03:55:16.807Z,19.70
2018-12-13T03:57:44.950Z,19.23
2018-12-13T04:00:13.114Z,19.53
2018-12-13T04:02:41.280Z,20.17
2018-12-13T04:05:09.442Z,18.93
2018-12-13T04:07:37.572Z,18.70
2018-12-13T04:10:05.811Z,20.90
2018-12-13T04:12:33.940Z,19.20
2018-12-13T04:15:02.074Z,18.83
2018-12-13T04:17:30.188Z,20.27
2018-12-13T04:19:58.356Z,20.07
2018-12-13T04:22:26.485Z,21.77
2018-12-13T04:24:54.618Z,21.57
2018-12-13T04:27:22.725Z,21.27
2018-12-13T04:29:50.881Z,21.20
2018-12-13T04:32:19.022Z,20.60
2018-12-13T04:34:47.151Z,19.77
2018-12-13T04:37:15.294Z,20.37
2018-12-13T04:39:43.462Z,19.93
2018-12-13T04:42:11.597Z,21.23
2018-12-13T04:44:39.794Z,20.97
2018-12-13T04:47:07.907Z,19.57
2018-12-13T04:49:36.051Z,20.93
2018-12-13T04:52:04.278Z,18.20
2018-12-13T04:54:32.390Z,18.80
2018-12-13T04:57:00.553Z,20.03
2018-12-13T04:59:28.703Z,20.13
2018-12-13T05:01:56.831Z,17.27
2018-12-13T05:04:24.995Z,18.47
2018-12-13T05:06:53.120Z,19.00
2018-12-13T05:09:21.287Z,18.87
2018-12-13T05:11:49.396Z,19.03
2018-12-13T05:14:17.542Z,18.70
2018-12-13T05:16:45.788Z,17.47
2018-12-13T05:19:13.910Z,18.33
2018-12-13T05:21:42.035Z,18.23
2018-12-13T05:24:10.209Z,18.00
2018-12-13T05:26:38.346Z,19.10
2018-12-13T05:29:06.474Z,18.43
2018-12-13T05:31:34.610Z,17.70
2018-12-13T05:34:02.745Z,17.80
2018-12-13T05:36:30.866Z,19.63
2018-12-13T05:38:59.106Z,17.60
2018-12-13T05:41:27.251Z,17.73
2018-12-13T05:43:55.361Z,18.17
2018-12-13T05:46:23.694Z,16.20
2018-12-13T05:48:51.889Z,15.67
2018-12-13T05:51:19.993Z,15.57
2018-12-13T05:53:48.132Z,16.93
2018-12-13T05:56:16.308Z,15.27
2018-12-13T05:58:44.420Z,14.93
2018-12-13T06:01:12.535Z,13.60
2018-12-13T06:03:40.697Z,15.07
2018-12-13T06:06:08.805Z,14.67
2018-12-13T06:08:36.949Z,14.17
2018-12-13T06:11:05.090Z,15.30
2018-12-13T06:13:33.201Z,14.23
2018-12-13T06:16:01.348Z,13.30
2018-12-13T06:18:29.538Z,13.50
2018-12-13T06:20:57.656Z,13.10
2018-12-13T06:23:25.793Z,13.77
2018-12-13T06:25:53.929Z,12.83
2018-12-13T06:28:22.070Z,13.13
2018-12-13T06:30:50.214Z,13.40
2018-12-13T06:33:24.688Z,12.40
2018-12-13T06:35:48.607Z,11.87
2018-12-13T06:38:16.751Z,11.60
2018-12-13T06:40:44.890Z,11.00
2018-12-13T06:43:13.031Z,11.50
2018-12-13T06:45:41.176Z,10.43
2018-12-13T06:48:09.322Z,10.77
2018-12-13T06:50:37.451Z,10.67
2018-12-13T06:53:05.606Z,10.73
2018-12-13T06:55:33.726Z,10.77
2018-12-13T06:58:01.867Z,11.40
2018-12-13T07:00:30.033Z,10.20
2018-12-13T07:02:58.144Z,10.30
2018-12-13T07:05:26.316Z,10.30
2018-12-13T07:07:54.425Z,10.20
2018-12-13T07:10:22.684Z,10.77
2018-12-13T07:12:50.795Z,10.23
2018-12-13T07:15:18.916Z,11.43
2018-12-13T07:17:48.228Z,11.27
2018-12-13T07:20:16.645Z,9.43
2018-12-13T07:22:44.778Z,10.30
2018-12-13T07:25:12.895Z,10.17
2018-12-13T07:27:41.419Z,10.90
2018-12-13T07:30:09.766Z,12.40
2018-12-13T07:32:37.954Z,11.00
2018-12-13T07:35:06.654Z,11.07
2018-12-13T07:37:34.768Z,10.80
2018-12-13T07:40:03.311Z,10.27
2018-12-13T07:42:31.431Z,10.33
2018-12-13T07:44:59.570Z,10.20
2018-12-13T07:47:27.692Z,10.63
2018-12-13T07:49:55.838Z,11.30
2018-12-13T07:52:23.955Z,10.07
2018-12-13T07:54:52.107Z,10.77
2018-12-13T07:57:20.224Z,10.37
2018-12-13T07:59:48.334Z,9.17
2018-12-13T08:02:16.476Z,9.57
2018-12-13T08:04:44.649Z,10.63
2018-12-13T08:07:12.802Z,10.73
2018-12-13T08:09:40.916Z,9.90
2018-12-13T08:12:09.058Z,9.23
2018-12-13T08:14:37.209Z,8.77
2018-12-13T08:17:05.434Z,8.97
2018-12-13T08:19:33.681Z,9.23
2018-12-13T08:22:01.800Z,9.17
2018-12-13T08:24:29.899Z,8.77
2018-12-13T08:26:58.058Z,9.33
2018-12-13T08:29:26.442Z,8.60
2018-12-13T08:31:54.573Z,8.50
2018-12-13T08:34:22.726Z,8.63
2018-12-13T08:36:50.886Z,9.17
2018-12-13T08:39:19.049Z,9.37
2018-12-13T08:41:47.195Z,8.57
2018-12-13T08:44:15.359Z,7.80
2018-12-13T08:46:43.534Z,8.30
2018-12-13T08:49:11.680Z,7.47
2018-12-13T08:51:39.867Z,7.60
2018-12-13T08:54:09.530Z,7.50
2018-12-13T08:56:37.756Z,8.07
2018-12-13T08:59:05.967Z,8.87
2018-12-13T09:01:34.097Z,8.10
2018-12-13T09:04:02.243Z,7.17
2018-12-13T09:06:30.365Z,7.57
2018-12-13T09:08:58.483Z,7.77
2018-12-13T09:11:26.575Z,7.83
2018-12-13T09:13:54.697Z,7.47
2018-12-13T09:16:22.802Z,6.87
2018-12-13T09:18:50.958Z,7.07
2018-12-13T09:21:19.084Z,7.27
2018-12-13T09:23:47.188Z,7.20
2018-12-13T09:26:15.316Z,6.93
2018-12-13T09:28:43.426Z,6.70
2018-12-13T09:31:11.654Z,6.90
2018-12-13T09:33:39.771Z,6.63
2018-12-13T09:36:07.931Z,7.00
2018-12-13T09:38:39.841Z,6.47
2018-12-13T09:41:06.246Z,5.87
2018-12-13T09:43:34.463Z,6.70
2018-12-13T09:46:02.581Z,6.03
2018-12-13T09:48:30.701Z,6.27
2018-12-13T09:50:58.846Z,6.47
2018-12-13T09:53:26.974Z,6.07
2018-12-13T09:55:55.094Z,5.80
2018-12-13T09:58:23.279Z,6.23
2018-12-13T10:00:51.395Z,5.97
2018-12-13T10:03:19.506Z,5.60
2018-12-13T10:05:47.644Z,6.03
2018-12-13T10:08:15.784Z,6.37
2018-12-13T10:10:43.920Z,6.20
2018-12-13T10:13:12.091Z,7.30
2018-12-13T10:15:40.201Z,5.50
2018-12-13T10:18:08.346Z,6.07
2018-12-13T10:20:36.459Z,5.97
2018-12-13T10:23:04.581Z,6.07
2018-12-13T10:25:32.844Z,5.60
2018-12-13T10:28:01.035Z,6.10
2018-12-13T10:30:29.137Z,5.70
2018-12-13T10:32:57.258Z,5.63
2018-12-13T10:35:25.490Z,6.40
2018-12-13T10:37:53.638Z,5.93
2018-12-13T10:40:21.777Z,5.63
2018-12-13T10:42:49.928Z,5.60
2018-12-13T10:45:18.035Z,5.97
2018-12-13T10:47:46.162Z,5.63
2018-12-13T10:50:14.298Z,5.70
2018-12-13T10:52:42.423Z,6.40
2018-12-13T10:55:10.525Z,6.03
2018-12-13T10:57:38.731Z,5.83
2018-12-13T11:00:09.117Z,6.77
2018-12-13T11:02:52.606Z,5.23
2018-12-13T11:05:21.429Z,6.10
2018-12-13T11:07:50.115Z,5.73
2018-12-13T11:10:25.361Z,6.03
2018-12-13T11:12:52.576Z,5.80
2018-12-13T11:15:20.870Z,5.20
2018-12-13T11:17:48.978Z,6.10
2018-12-13T11:20:17.097Z,5.67
2018-12-13T11:22:45.234Z,5.33
2018-12-13T11:25:13.371Z,5.43
2018-12-13T11:30:47.424Z,6.83
2018-12-13T11:33:15.742Z,6.37
2018-12-13T11:35:43.832Z,6.50
2018-12-13T11:38:11.948Z,6.00
2018-12-13T11:40:40.054Z,6.03
2018-12-13T11:43:08.214Z,6.50
2018-12-13T11:45:36.356Z,6.37
2018-12-13T11:48:04.477Z,7.07
2018-12-13T11:50:32.591Z,6.17
2018-12-13T11:53:00.746Z,5.97
2018-12-13T11:55:31.477Z,5.80
2018-12-13T11:57:59.828Z,5.70
2018-12-13T12:00:27.915Z,5.73
2018-12-13T12:02:56.098Z,6.23
2018-12-13T12:05:24.329Z,5.83
2018-12-13T12:07:52.471Z,6.23
2018-12-13T12:10:20.795Z,6.63
2018-12-13T12:12:48.963Z,5.37
2018-12-13T12:15:17.118Z,5.43
2018-12-13T12:17:45.221Z,5.30
2018-12-13T12:20:13.434Z,4.87
2018-12-13T12:22:41.570Z,4.97
2018-12-13T12:25:09.806Z,4.80
2018-12-13T12:27:37.904Z,5.00
2018-12-13T12:30:06.631Z,5.00
2018-12-13T12:32:34.750Z,4.40
2018-12-13T12:35:03.017Z,4.10
2018-12-13T12:37:31.141Z,4.40
2018-12-13T12:39:59.252Z,5.40
2018-12-13T12:42:27.401Z,4.90
2018-12-13T12:44:55.519Z,4.80
2018-12-13T12:47:23.678Z,4.47
2018-12-13T12:49:51.808Z,4.47
2018-12-13T12:52:19.974Z,4.37
2018-12-13T12:54:48.093Z,5.17
2018-12-13T12:57:16.275Z,4.67
2018-12-13T12:59:44.389Z,4.17
2018-12-13T13:02:12.496Z,4.23
2018-12-13T13:04:40.654Z,4.43
2018-12-13T13:07:09.518Z,4.40
2018-12-13T13:09:37.664Z,4.97
2018-12-13T13:12:05.792Z,4.93
2018-12-13T13:14:33.909Z,4.77
2018-12-13T13:17:02.017Z,4.60
2018-12-13T13:19:30.283Z,4.77
2018-12-13T13:21:58.430Z,5.10
2018-12-13T13:24:26.566Z,4.30
2018-12-13T13:26:54.718Z,4.83
2018-12-13T13:29:22.852Z,4.40
2018-12-13T13:31:51.342Z,4.20
2018-12-13T13:34:19.735Z,4.47
2018-12-13T13:36:47.985Z,4.23
2018-12-13T13:39:16.144Z,3.93
2018-12-13T13:41:44.573Z,4.37
2018-12-13T13:44:13.303Z,4.50
2018-12-13T13:46:41.425Z,4.00
2018-12-13T13:49:09.848Z,3.80
2018-12-13T13:51:38.064Z,4.10
2018-12-13T13:54:06.265Z,4.13
2018-12-13T13:56:34.418Z,3.50
2018-12-13T13:59:02.926Z,4.07
2018-12-13T14:01:31.103Z,3.57
2018-12-13T14:03:59.599Z,3.70
2018-12-13T14:06:27.693Z,3.70
2018-12-13T14:08:56.089Z,3.20
2018-12-13T14:11:24.437Z,3.67
2018-12-13T14:13:52.896Z,3.60
2018-12-13T14:16:21.168Z,3.77
2018-12-13T14:18:49.309Z,3.10
2018-12-13T14:21:17.627Z,3.17
2018-12-13T14:23:45.809Z,3.27
2018-12-13T14:26:13.959Z,3.47
2018-12-13T14:28:42.099Z,3.57
2018-12-13T14:31:10.254Z,3.20
2018-12-13T14:33:38.692Z,3.47
2018-12-13T14:36:07.142Z,3.10
2018-12-13T14:38:35.877Z,3.80
2018-12-13T14:41:04.097Z,2.93
2018-12-13T14:43:32.612Z,3.17
2018-12-13T14:46:00.749Z,3.87
2018-12-13T14:48:29.239Z,3.10
2018-12-13T14:50:57.633Z,3.97
2018-12-13T14:53:25.793Z,3.90
2018-12-13T14:55:54.487Z,3.00
2018-12-13T14:58:22.906Z,3.37
2018-12-13T15:00:51.284Z,3.57
2018-12-13T15:03:19.631Z,3.60
2018-12-13T15:05:48.143Z,3.37
2018-12-13T15:08:16.549Z,3.57
2018-12-13T15:10:44.979Z,3.63
2018-12-13T15:13:13.361Z,3.47
2018-12-13T15:15:41.514Z,3.20
2018-12-13T15:18:09.699Z,3.47
2018-12-13T15:20:37.846Z,3.00
2018-12-13T15:23:06.379Z,3.40
2018-12-13T15:25:34.539Z,3.40
2018-12-13T15:28:02.818Z,3.97
2018-12-13T15:30:30.997Z,3.47
2018-12-13T15:32:59.111Z,3.67
2018-12-13T15:35:27.252Z,3.77
2018-12-13T15:37:55.413Z,3.50
2018-12-13T15:40:23.519Z,3.73
2018-12-13T15:42:52.261Z,3.80
2018-12-13T15:45:22.535Z,4.07
2018-12-13T15:47:50.697Z,4.23
2018-12-13T15:50:18.794Z,4.20
2018-12-13T15:52:46.914Z,4.03
2018-12-13T15:55:15.009Z,4.33
2018-12-13T15:57:43.174Z,4.83
2018-12-13T16:00:11.450Z,4.63
2018-12-13T16:02:39.559Z,4.50
2018-12-13T16:05:07.755Z,4.50
2018-12-13T16:07:35.878Z,4.40
2018-12-13T16:10:05.502Z,4.60
2018-12-13T16:12:33.730Z,4.03
2018-12-13T16:15:01.858Z,4.60
2018-12-13T16:17:30.069Z,4.17
2018-12-13T16:19:58.225Z,4.20
2018-12-13T16:22:26.401Z,4.20
2018-12-13T16:24:54.499Z,4.40
2018-12-13T16:27:22.734Z,4.40
2018-12-13T16:29:51.450Z,4.77
2018-12-13T16:32:19.603Z,4.80
2018-12-13T16:34:47.685Z,4.93
2018-12-13T16:37:15.787Z,4.60
2018-12-13T16:39:43.888Z,4.60
2018-12-13T16:42:12.042Z,5.20
2018-12-13T16:44:40.284Z,4.97
2018-12-13T16:47:09.022Z,4.83
2018-12-13T16:49:37.154Z,5.10
2018-12-13T16:52:05.278Z,5.63
2018-12-13T16:54:33.406Z,5.53
2018-12-13T16:57:01.525Z,5.53
2018-12-13T16:59:29.673Z,4.83
2018-12-13T17:01:57.801Z,5.50
2018-12-13T17:04:25.962Z,6.33
2018-12-13T17:06:54.063Z,6.10
2018-12-13T17:09:22.170Z,5.33
2018-12-13T17:11:50.277Z,5.77
2018-12-13T17:14:18.414Z,5.97
2018-12-13T17:16:46.546Z,6.50
2018-12-13T17:19:14.765Z,7.27
2018-12-13T17:21:42.865Z,6.70
2018-12-13T17:24:11.002Z,6.30
2018-12-13T17:26:39.128Z,6.90
2018-12-13T17:29:07.252Z,6.93
2018-12-13T17:31:35.422Z,6.40
2018-12-13T17:34:03.537Z,7.07
2018-12-13T17:36:31.702Z,6.93
2018-12-13T17:38:59.833Z,7.13
2018-12-13T17:41:27.975Z,7.20
2018-12-13T17:43:56.091Z,7.63
2018-12-13T17:46:24.224Z,7.73
2018-12-13T17:48:52.390Z,9.30
2018-12-13T17:51:20.530Z,6.77
2018-12-13T17:53:48.686Z,7.20
2018-12-13T17:56:16.845Z,7.97
2018-12-13T17:58:44.982Z,7.97
2018-12-13T18:01:13.245Z,8.33
2018-12-13T18:03:41.444Z,8.27
2018-12-13T18:06:09.555Z,7.20
2018-12-13T18:08:37.660Z,9.63
2018-12-13T18:11:05.872Z,8.13
2018-12-13T18:13:36.417Z,7.63
2018-12-13T18:16:04.799Z,8.30
2018-12-13T18:18:32.969Z,8.30
2018-12-13T18:21:01.193Z,9.07
2018-12-13T18:23:29.382Z,7.63
2018-12-13T18:25:57.634Z,8.00
2018-12-13T18:28:25.757Z,8.67
2018-12-13T18:30:53.846Z,7.50
2018-12-13T18:33:21.981Z,8.33
2018-12-13T18:35:50.086Z,8.07
2018-12-13T18:38:18.513Z,7.70
2018-12-13T18:40:46.748Z,7.47
2018-12-13T18:43:14.849Z,8.10
2018-12-13T18:45:42.973Z,7.90
2018-12-13T18:48:11.277Z,8.47
2018-12-13T18:50:39.401Z,8.50
2018-12-13T18:53:07.879Z,7.83
2018-12-13T18:55:36.085Z,8.43
2018-12-13T18:58:04.237Z,8.30
2018-12-13T19:00:32.396Z,8.37
2018-12-13T19:03:02.689Z,8.60
2018-12-13T19:05:31.184Z,8.57
2018-12-13T19:07:59.570Z,8.97
2018-12-13T19:10:30.268Z,8.57
2018-12-13T19:12:58.694Z,8.97
2018-12-13T19:15:30.865Z,8.57
2018-12-13T19:17:59.550Z,9.77
2018-12-13T19:20:28.013Z,9.13
2018-12-13T19:22:56.485Z,8.87
2018-12-13T19:25:25.091Z,9.70
2018-12-13T19:27:53.525Z,9.87
2018-12-13T19:30:21.944Z,8.80
2018-12-13T19:32:50.086Z,9.57
2018-12-13T19:35:19.467Z,8.57
2018-12-13T19:37:52.287Z,9.40
2018-12-13T19:40:20.758Z,9.30
2018-12-13T19:42:48.861Z,9.67
2018-12-13T19:45:20.757Z,9.07
2018-12-13T19:47:49.055Z,9.10
2018-12-13T19:50:17.183Z,8.83
2018-12-13T19:52:46.906Z,9.10
2018-12-13T19:55:20.196Z,9.97
2018-12-13T19:57:48.323Z,12.07
2018-12-13T20:00:16.798Z,9.63
2018-12-13T20:02:45.185Z,9.97
2018-12-13T20:05:13.672Z,9.37
2018-12-13T20:07:42.192Z,9.57
2018-12-13T20:10:10.316Z,10.10
2018-12-13T20:12:38.420Z,10.40
2018-12-13T20:15:10.633Z,10.63
2018-12-13T20:17:42.884Z,10.90
2018-12-13T20:20:15.829Z,10.20
2018-12-13T20:22:47.794Z,10.00
2018-12-13T20:25:19.062Z,9.37
2018-12-13T20:27:51.897Z,10.40
2018-12-13T20:30:25.184Z,9.93
2018-12-13T20:32:54.547Z,10.60
2018-12-13T20:35:26.268Z,10.17
2018-12-13T20:37:59.611Z,11.10
2018-12-13T20:40:29.906Z,10.77
2018-12-13T20:42:58.069Z,10.40
2018-12-13T20:45:26.182Z,10.47
2018-12-13T20:47:54.332Z,10.60
2018-12-13T20:50:24.659Z,9.70
2018-12-13T20:52:57.704Z,10.30
2018-12-13T20:55:30.891Z,10.53
2018-12-13T20:58:02.499Z,10.73
2018-12-13T21:00:35.285Z,10.70
2018-12-13T21:03:07.061Z,10.93
2018-12-13T21:05:38.592Z,11.23
2018-12-13T21:08:09.678Z,10.53
2018-12-13T21:10:40.455Z,10.63
2018-12-13T21:13:08.586Z,10.53
2018-12-13T21:15:40.616Z,10.43
2018-12-13T21:18:12.951Z,11.00
2018-12-13T21:20:45.935Z,10.43
2018-12-13T21:23:17.512Z,11.07
2018-12-13T21:25:45.679Z,10.97
2018-12-13T21:28:16.101Z,10.20
2018-12-13T21:30:44.319Z,11.90
2018-12-13T21:33:12.552Z,10.57
2018-12-13T21:35:40.726Z,10.27
2018-12-13T21:38:08.871Z,10.87
2018-12-13T21:40:37.146Z,10.17
2018-12-13T21:43:05.315Z,10.37
2018-12-13T21:45:33.457Z,11.00
2018-12-13T21:48:01.614Z,11.00
2018-12-13T21:50:29.966Z,10.43
2018-12-13T21:52:58.100Z,11.40
2018-12-13T21:55:26.251Z,11.00
2018-12-13T21:57:54.416Z,10.97
2018-12-13T22:00:22.554Z,11.67
2018-12-13T22:02:50.661Z,11.50
2018-12-13T22:05:18.826Z,11.57
2018-12-13T22:07:46.954Z,11.93
2018-12-13T22:10:15.093Z,11.63
2018-12-13T22:12:43.258Z,10.97
2018-12-13T22:15:13.189Z,11.67
2018-12-13T22:17:41.505Z,10.80
2018-12-13T22:20:09.712Z,11.27
2018-12-13T22:22:38.026Z,10.83
2018-12-13T22:25:06.563Z,11.83
2018-12-13T22:27:34.729Z,11.43
2018-12-13T22:30:03.851Z,12.30
2018-12-13T22:32:32.095Z,12.20
2018-12-13T22:35:00.374Z,11.03
2018-12-13T22:37:28.637Z,11.93
2018-12-13T22:39:56.848Z,13.63
2018-12-13T22:42:25.010Z,12.90
2018-12-13T22:44:53.126Z,12.77
2018-12-13T22:47:21.262Z,12.50
2018-12-13T22:49:49.397Z,13.07
2018-12-13T22:52:17.589Z,11.57
2018-12-13T22:54:45.702Z,12.77
2018-12-13T22:57:13.818Z,13.23
2018-12-13T22:59:41.952Z,12.80
2018-12-13T23:02:10.164Z,12.57
2018-12-13T23:04:38.292Z,12.20
2018-12-13T23:07:06.409Z,12.30
2018-12-13T23:09:34.546Z,14.33
2018-12-13T23:12:02.682Z,13.03
2018-12-13T23:14:30.843Z,12.93
2018-12-13T23:16:59.047Z,12.43
2018-12-13T23:19:27.186Z,12.63
2018-12-13T23:21:55.317Z,12.80
2018-12-13T23:24:23.481Z,13.33
2018-12-13T23:26:51.592Z,12.63
2018-12-13T23:29:19.710Z,11.97
2018-12-13T23:31:47.850Z,12.37
2018-12-13T23:34:15.956Z,12.30
2018-12-13T23:36:44.095Z,10.93
2018-12-13T23:39:12.241Z,12.73
2018-12-13T23:41:40.409Z,11.37
2018-12-13T23:44:08.544Z,12.03
2018-12-13T23:46:36.677Z,12.10
2018-12-13T23:49:04.809Z,11.47
2018-12-13T23:51:32.949Z,12.17
2018-12-13T23:54:01.109Z,11.73
2018-12-13T23:56:29.246Z,10.10
2018-12-13T23:58:57.576Z,12.37
